Beauregard Regional Airport
KDRI : now visible

Airfield :











YOU CAN JOIN US ON...

 
LOGIN :

Register | Disclaimer

   EN    FR    IT 

 









Legend :    VFR   Marginal VFR   IFR   Intensive IFR   Very Intensive IFR
Visi :
Ceiling :
>= 8 km
>= 3000ft
5 to 8 km
1000 to 3000 ft
1500m to 5 km
500 to 1000 ft
800 to 1500m
200 to 500 ft
< 800m
< 200 ft
Symbols :   Thunderstorms  Fog  Heavy snow  Heavy precipitations  Wind > 20 kt






- Airport Elevation : 202 ft


KDRI - Beauregard Regional

CURRENT METAR :
  • 151415Z AUTO 28004KT 10SM CLR 28/26 A3012 RMK AO2 T02760258

EXPIRED METARs :
  • 151335Z AUTO 00000KT 9SM CLR 26/25 A3012 RMK AO2 T02570251
  • 151355Z AUTO 29004KT 10SM CLR 27/26 A3012 RMK AO2 T02660256
  • 151315Z AUTO 00000KT 8SM CLR 25/25 A3011 RMK AO2 T02530251
  • 151255Z AUTO 00000KT 9SM SCT180 25/25 A3011 RMK AO2 T02460245
  • 151235Z AUTO 00000KT 9SM FEW180 24/24 A3010 RMK AO2 T02420242
  • 151215Z AUTO 00000KT 10SM FEW290 24/24 A3010 RMK AO2 T02360236
  • 151155Z AUTO 00000KT 9SM CLR 23/23 A3009 RMK AO2 T02320232
  • 151135Z AUTO 00000KT 8SM FEW240 SCT280 23/23 A3009 RMK AO2 T02310231
  • 151115Z AUTO 00000KT 9SM BKN240 OVC280 23/23 A3009 RMK AO2 T02310231
  • 151055Z AUTO 00000KT 10SM SCT240 OVC290 23/23 A3008 RMK AO2 T02310231
  • 151035Z AUTO 00000KT 10SM OVC300 23/23 A3008 RMK AO2 T02300230
  • 151015Z AUTO 00000KT 10SM BKN300 23/23 A3007 RMK AO2 T02300230
  • 150955Z AUTO 00000KT 10SM FEW300 23/23 A3007 RMK AO2 T02320232
  • 150935Z AUTO 00000KT 10SM CLR 23/23 A3006 RMK AO2 T02320229

TAF N/A
KZHU FIR / North America



MET'MAP, your aeronautical weather chart ! - Copyright ORBIFLY December 2007 - Disclaimer

ORBIFLY MET'MAP TEAM :

Programming & Development : Alexandra Zaïnal
Original concept : Baudouin d'Aumeries
Technical & hardware support : Manuel Goepfert
Assistance : Marc-Olivier Méhu




SOURCES & CREDITS :

   NOAA       Earth
Advisory